CheckWX is a tool to help pilots better visualize weather data.  It is not intended as a substitute for an official pre-flight weather briefing.

01:23:10 UTC

DTTF METAR
Gafsa Ksar International Airport
Gafsa, Tunisia
Current

23 mins ago

DTTF 150100Z 04004KT CAVOK 17/10 Q1017 NOSIG
Observed
Oct-15 @ 01:00 UTC
Wind
  • 040° at 4 KTS
Visibility
10,000+ meters
Flight Rules
VFR
Cloud Levels
  • Clear skies
Temperature
17°C / 63°F
Dewpoint
10°C / 50°F
Humidity
64%
Altimeter
30.03" Hg
Pressure
1016.92 hPa
Previous

2 hours ago

DTTF 142300Z VRB02KT CAVOK 22/11 Q1017 NOSIG
Observed
Oct-14 @ 23:00 UTC
Wind
  • Variable at 2 KTS
Visibility
10,000+ meters
Flight Rules
VFR
Cloud Levels
  • Clear skies
Temperature
22°C / 72°F
Dewpoint
11°C / 52°F
Humidity
50%
Altimeter
30.03" Hg
Pressure
1016.92 hPa
Previous

3 hours ago

DTTF 142200Z 19004KT CAVOK 22/11 Q1017 NOSIG
Observed
Oct-14 @ 22:00 UTC
Wind
  • 190° at 4 KTS
Visibility
10,000+ meters
Flight Rules
VFR
Cloud Levels
  • Clear skies
Temperature
22°C / 72°F
Dewpoint
11°C / 52°F
Humidity
50%
Altimeter
30.03" Hg
Pressure
1016.92 hPa